createdAt,value
2018-12-24T00:01:17.362Z,2.53
2018-12-24T00:03:47.796Z,2.27
2018-12-24T00:06:17.509Z,3.27
2018-12-24T00:08:47.766Z,2.23
2018-12-24T00:11:18.105Z,2.67
2018-12-24T00:13:48.456Z,2.33
2018-12-24T00:16:18.120Z,2.97
2018-12-24T00:18:48.345Z,3.23
2018-12-24T00:21:18.708Z,2.90
2018-12-24T00:23:49.050Z,5.00
2018-12-24T00:26:19.384Z,2.73
2018-12-24T00:28:49.699Z,2.60
2018-12-24T00:31:20.233Z,2.50
2018-12-24T00:33:50.553Z,3.77
2018-12-24T00:36:20.952Z,2.83
2018-12-24T00:38:51.273Z,3.23
2018-12-24T00:41:21.623Z,2.80
2018-12-24T00:43:51.976Z,3.40
2018-12-24T00:46:22.304Z,3.03
2018-12-24T00:48:51.967Z,3.23
2018-12-24T00:51:22.208Z,2.77
2018-12-24T00:53:52.562Z,5.10
2018-12-24T00:56:22.888Z,3.53
2018-12-24T00:58:52.572Z,2.83
2018-12-24T01:01:22.800Z,3.30
2018-12-24T01:03:53.152Z,8.97
2018-12-24T01:06:22.832Z,3.90
2018-12-24T01:08:52.415Z,3.80
2018-12-24T01:11:22.656Z,4.00
2018-12-24T01:13:52.345Z,3.80
2018-12-24T01:16:22.619Z,3.30
2018-12-24T01:18:52.306Z,3.77
2018-12-24T01:21:22.520Z,3.33
2018-12-24T01:23:52.892Z,3.92
2018-12-24T01:26:23.231Z,3.93
2018-12-24T01:28:52.944Z,3.50
2018-12-24T01:31:22.520Z,3.87
2018-12-24T01:33:52.764Z,3.33
2018-12-24T01:36:23.152Z,3.77
2018-12-24T01:38:52.828Z,3.60
2018-12-24T01:41:23.092Z,4.07
2018-12-24T01:43:53.417Z,3.87
2018-12-24T01:46:23.125Z,3.60
2018-12-24T01:48:52.728Z,3.60
2018-12-24T01:51:22.964Z,5.20
2018-12-24T01:53:53.312Z,4.03
2018-12-24T01:56:23.027Z,4.30
2018-12-24T01:58:53.291Z,5.97
2018-12-24T02:01:22.980Z,3.43
2018-12-24T02:03:53.236Z,3.90
2018-12-24T02:06:22.915Z,4.00
2018-12-24T02:08:53.167Z,4.00
2018-12-24T02:11:23.498Z,5.53
2018-12-24T02:13:53.820Z,3.83
2018-12-24T02:16:23.516Z,4.37
2018-12-24T02:18:53.777Z,4.53
2018-12-24T02:21:23.456Z,4.73
2018-12-24T02:23:53.679Z,6.17
2018-12-24T02:26:23.359Z,6.07
2018-12-24T02:28:52.947Z,5.97
2018-12-24T02:31:22.539Z,6.77
2018-12-24T02:33:52.813Z,9.17
2018-12-24T02:36:22.468Z,7.50
2018-12-24T02:38:52.080Z,8.57
2018-12-24T02:41:22.329Z,7.67
2018-12-24T02:43:52.787Z,8.40
2018-12-24T02:46:23.170Z,8.37
2018-12-24T02:48:52.844Z,7.63
2018-12-24T02:51:23.100Z,6.87
2018-12-24T02:53:53.445Z,8.63
2018-12-24T02:56:23.135Z,8.70
2018-12-24T02:58:52.727Z,7.33
2018-12-24T03:01:22.316Z,6.47
2018-12-24T03:03:52.571Z,7.23
2018-12-24T03:06:22.908Z,6.83
2018-12-24T03:08:52.599Z,7.20
2018-12-24T03:11:22.176Z,7.73
2018-12-24T03:13:52.435Z,9.00
2018-12-24T03:16:22.096Z,9.73
2018-12-24T03:18:52.373Z,10.20
2018-12-24T03:21:22.697Z,8.13
2018-12-24T03:23:53.045Z,9.27
2018-12-24T03:26:23.363Z,7.77
2018-12-24T03:28:53.078Z,8.63
2018-12-24T03:31:23.303Z,9.07
2018-12-24T03:33:53.008Z,11.13
2018-12-24T03:36:22.593Z,10.27
2018-12-24T03:38:52.169Z,10.63
2018-12-24T03:41:22.850Z,10.77
2018-12-24T03:43:53.175Z,11.50
2018-12-24T03:46:22.891Z,11.00
2018-12-24T03:48:52.472Z,14.43
2018-12-24T03:51:22.716Z,14.17
2018-12-24T03:53:53.311Z,10.00
2018-12-24T03:56:22.943Z,14.90
2018-12-24T03:58:53.216Z,12.97
2018-12-24T04:01:22.904Z,14.67
2018-12-24T04:03:53.144Z,14.37
2018-12-24T04:06:22.917Z,14.47
2018-12-24T04:08:52.512Z,12.03
2018-12-24T04:11:24.141Z,13.33
2018-12-24T04:13:54.612Z,14.97
2018-12-24T04:16:24.296Z,15.77
2018-12-24T04:18:54.528Z,14.77
2018-12-24T04:21:24.873Z,14.30
2018-12-24T04:23:55.220Z,15.53
2018-12-24T04:26:24.896Z,15.93
2018-12-24T04:28:55.149Z,16.47
2018-12-24T04:31:25.477Z,19.67
2018-12-24T04:33:55.827Z,15.90
2018-12-24T04:36:25.510Z,15.33
2018-12-24T04:38:55.764Z,18.90
2018-12-24T04:41:26.084Z,18.30
2018-12-24T04:43:58.921Z,16.73
2018-12-24T04:46:27.772Z,17.67
2018-12-24T04:48:58.050Z,19.40
2018-12-24T04:51:27.718Z,16.00
2018-12-24T04:53:57.976Z,20.53
2018-12-24T04:56:28.468Z,13.40
2018-12-24T04:58:58.832Z,14.07
2018-12-24T05:01:28.505Z,16.30
2018-12-24T05:03:58.757Z,15.30
2018-12-24T05:06:28.486Z,17.70
2018-12-24T05:08:58.727Z,17.93
2018-12-24T05:11:28.434Z,16.55
2018-12-24T05:13:58.680Z,17.10
2018-12-24T05:16:28.392Z,18.53
2018-12-24T05:18:58.624Z,17.47
2018-12-24T05:21:28.415Z,15.35
2018-12-24T05:23:58.665Z,17.67
2018-12-24T05:26:28.374Z,20.17
2018-12-24T05:28:58.600Z,14.37
2018-12-24T05:31:28.299Z,20.63
2018-12-24T05:33:58.553Z,20.10
2018-12-24T05:36:28.915Z,19.73
2018-12-24T05:38:58.590Z,16.60
2018-12-24T05:41:28.868Z,19.63
2018-12-24T05:43:58.561Z,18.53
2018-12-24T05:46:28.828Z,18.13
2018-12-24T05:48:58.565Z,15.47
2018-12-24T05:51:28.816Z,18.90
2018-12-24T05:53:58.584Z,18.57
2018-12-24T05:56:28.856Z,18.80
2018-12-24T05:58:58.528Z,24.43
2018-12-24T06:01:28.119Z,22.97
2018-12-24T06:03:58.384Z,23.30
2018-12-24T06:06:28.069Z,23.87
2018-12-24T06:08:58.358Z,26.83
2018-12-24T06:11:28.693Z,23.03
2018-12-24T06:13:59.049Z,25.17
2018-12-24T06:16:28.732Z,26.95
2018-12-24T06:18:58.326Z,24.47
2018-12-24T06:21:27.931Z,25.43
2018-12-24T06:23:57.528Z,22.77
2018-12-24T06:26:27.132Z,25.50
2018-12-24T06:28:56.752Z,27.07
2018-12-24T06:31:27.008Z,27.33
2018-12-24T06:33:57.345Z,27.30
2018-12-24T06:36:27.702Z,26.73
2018-12-24T06:38:58.049Z,30.90
2018-12-24T06:41:28.400Z,25.10
2018-12-24T06:44:06.518Z,25.90
2018-12-24T06:46:30.048Z,28.63
2018-12-24T06:49:00.328Z,30.63
2018-12-24T06:51:30.022Z,27.00
2018-12-24T06:54:00.276Z,28.07
2018-12-24T06:56:30.617Z,29.00
2018-12-24T06:59:01.073Z,29.70
2018-12-24T07:01:30.764Z,33.10
2018-12-24T07:04:01.024Z,29.70
2018-12-24T07:06:30.703Z,30.07
2018-12-24T07:09:01.040Z,32.63
2018-12-24T07:11:30.716Z,32.73
2018-12-24T07:14:00.990Z,29.50
2018-12-24T07:16:30.664Z,31.10
2018-12-24T07:19:00.944Z,29.13
2018-12-24T07:21:30.612Z,27.52
2018-12-24T07:24:00.211Z,32.33
2018-12-24T07:26:29.816Z,32.00
2018-12-24T07:28:59.427Z,30.53
2018-12-24T07:31:29.716Z,27.65
2018-12-24T07:33:59.419Z,31.20
2018-12-24T07:36:29.020Z,32.60
2018-12-24T07:38:59.427Z,29.63
2018-12-24T07:41:29.764Z,33.28
2018-12-24T07:44:00.144Z,31.87
2018-12-24T07:46:30.482Z,38.30
2018-12-24T07:49:00.836Z,32.50
2018-12-24T07:51:30.504Z,35.17
2018-12-24T07:54:00.781Z,36.20
2018-12-24T07:56:30.460Z,38.38
2018-12-24T07:59:00.712Z,37.70
2018-12-24T08:01:30.390Z,37.70
2018-12-24T08:04:00.635Z,37.93
2018-12-24T08:06:30.354Z,47.67
2018-12-24T08:09:00.588Z,41.00
2018-12-24T08:11:30.283Z,40.98
2018-12-24T08:13:59.888Z,37.40
2018-12-24T08:16:29.475Z,37.90
2018-12-24T08:18:59.767Z,35.00
2018-12-24T08:21:30.089Z,36.70
2018-12-24T08:24:00.423Z,32.40
2018-12-24T08:26:30.117Z,35.13
2018-12-24T08:29:00.437Z,35.93
2018-12-24T08:31:30.116Z,35.30
2018-12-24T08:34:00.365Z,32.73
2018-12-24T08:36:30.051Z,35.30
2018-12-24T08:39:00.328Z,34.13
2018-12-24T08:41:29.996Z,39.40
2018-12-24T08:44:00.253Z,41.47
2018-12-24T08:46:29.938Z,37.50
2018-12-24T08:49:00.184Z,41.80
2018-12-24T08:51:30.725Z,36.98
2018-12-24T08:54:01.047Z,38.37
2018-12-24T08:56:30.771Z,36.03
2018-12-24T08:59:01.017Z,41.23
2018-12-24T09:01:30.707Z,34.13
2018-12-24T09:04:00.941Z,37.50
2018-12-24T09:06:31.292Z,39.50
2018-12-24T09:09:01.640Z,38.97
2018-12-24T09:11:31.319Z,42.10
2018-12-24T09:14:01.552Z,47.53
2018-12-24T09:16:31.273Z,39.03
2018-12-24T09:19:01.535Z,36.40
2018-12-24T09:21:31.216Z,40.30
2018-12-24T09:24:01.445Z,38.27
2018-12-24T09:26:31.160Z,35.20
2018-12-24T09:29:00.766Z,42.10
2018-12-24T09:31:31.025Z,38.13
2018-12-24T09:34:00.706Z,35.60
2018-12-24T09:36:30.955Z,40.83
2018-12-24T09:39:00.612Z,33.33
2018-12-24T09:41:30.889Z,35.47
2018-12-24T09:44:00.578Z,35.20
2018-12-24T09:46:30.866Z,35.00
2018-12-24T09:49:00.551Z,35.60
2018-12-24T09:51:30.824Z,28.60
2018-12-24T09:54:01.145Z,29.93
2018-12-24T09:56:31.488Z,27.67
2018-12-24T09:59:01.179Z,28.73
2018-12-24T10:01:30.826Z,24.43
2018-12-24T10:04:07.316Z,26.00
2018-12-24T10:06:38.248Z,24.82
2018-12-24T10:09:13.400Z,22.63
2018-12-24T10:11:43.861Z,21.70
2018-12-24T10:14:13.531Z,18.37
2018-12-24T10:16:43.780Z,21.07
2018-12-24T10:19:14.250Z,19.70
2018-12-24T10:21:44.680Z,16.23
2018-12-24T10:24:15.022Z,16.80
2018-12-24T10:26:45.363Z,19.40
2018-12-24T10:29:15.721Z,23.60
2018-12-24T10:31:46.080Z,20.83
2018-12-24T10:34:16.412Z,19.80
2018-12-24T10:36:46.764Z,14.27
2018-12-24T10:39:16.451Z,20.47
2018-12-24T10:41:46.740Z,15.83
2018-12-24T10:44:16.411Z,14.13
2018-12-24T10:46:46.668Z,15.67
2018-12-24T10:49:17.025Z,14.20
2018-12-24T10:51:47.501Z,15.77
2018-12-24T10:54:17.834Z,12.10
2018-12-24T10:56:48.168Z,12.83
2018-12-24T10:59:18.516Z,12.80
2018-12-24T11:01:48.880Z,13.60
2018-12-24T11:04:19.207Z,13.53
2018-12-24T11:06:49.564Z,12.73
2018-12-24T11:09:19.912Z,12.43
2018-12-24T11:11:50.468Z,12.10
2018-12-24T11:14:20.823Z,11.33
2018-12-24T11:16:51.136Z,14.47
2018-12-24T11:19:21.475Z,19.33
2018-12-24T11:21:51.812Z,12.47
2018-12-24T11:24:22.208Z,15.80
2018-12-24T11:26:52.631Z,10.60
2018-12-24T11:29:22.312Z,12.60
2018-12-24T11:31:52.560Z,9.53
2018-12-24T11:34:22.928Z,10.57
2018-12-24T11:36:52.587Z,8.97
2018-12-24T11:39:22.162Z,11.17
2018-12-24T11:41:52.444Z,9.40
2018-12-24T11:44:22.790Z,12.15
2018-12-24T11:46:52.484Z,11.80
2018-12-24T11:49:22.728Z,12.17
2018-12-24T11:51:53.088Z,12.57
2018-12-24T11:54:22.760Z,8.20
2018-12-24T11:56:52.352Z,8.67
2018-12-24T11:59:22.606Z,7.43
2018-12-24T12:01:52.936Z,10.30
2018-12-24T12:04:22.655Z,8.83
2018-12-24T12:06:52.258Z,10.03
2018-12-24T12:09:22.609Z,10.30
2018-12-24T12:11:52.940Z,10.85
2018-12-24T12:14:22.651Z,9.20
2018-12-24T12:16:52.860Z,9.23
2018-12-24T12:19:22.562Z,10.77
2018-12-24T12:21:52.801Z,12.37
2018-12-24T12:24:22.528Z,12.20
2018-12-24T12:26:52.766Z,14.23
2018-12-24T12:29:22.466Z,9.27
2018-12-24T12:31:52.052Z,9.57
2018-12-24T12:34:22.276Z,11.53
2018-12-24T12:36:52.644Z,12.93
2018-12-24T12:39:22.309Z,8.10
2018-12-24T12:41:52.557Z,12.03
2018-12-24T12:44:22.285Z,12.57
2018-12-24T12:46:52.516Z,9.63
2018-12-24T12:49:22.200Z,9.23
2018-12-24T12:51:52.436Z,9.33
2018-12-24T12:54:22.768Z,12.70
2018-12-24T12:56:53.108Z,9.13
2018-12-24T12:59:22.764Z,14.03
2018-12-24T13:01:53.040Z,8.40
2018-12-24T13:04:22.721Z,9.57
2018-12-24T13:06:52.976Z,9.70
2018-12-24T13:09:22.644Z,8.20
2018-12-24T13:11:52.919Z,8.00
2018-12-24T13:14:22.604Z,7.80
2018-12-24T13:16:52.866Z,7.33
2018-12-24T13:19:22.551Z,10.07
2018-12-24T13:21:52.824Z,9.77
2018-12-24T13:24:22.492Z,8.00
2018-12-24T13:26:52.749Z,8.40
2018-12-24T13:29:22.436Z,11.53
2018-12-24T13:31:52.703Z,7.23
2018-12-24T13:34:22.367Z,4.30
2018-12-24T13:36:52.616Z,6.57
2018-12-24T13:39:22.272Z,5.83
2018-12-24T13:41:52.564Z,10.27
2018-12-24T13:44:22.232Z,6.37
2018-12-24T13:46:51.807Z,7.10
2018-12-24T13:49:22.148Z,7.80
2018-12-24T13:51:51.835Z,6.60
2018-12-24T13:54:22.117Z,7.23
2018-12-24T13:56:52.444Z,6.45
2018-12-24T13:59:23.588Z,7.03
2018-12-24T14:01:53.888Z,6.90
2018-12-24T14:04:23.590Z,6.07
2018-12-24T14:06:53.155Z,5.87
2018-12-24T14:09:23.408Z,7.77
2018-12-24T14:11:53.747Z,8.10
2018-12-24T14:14:24.096Z,4.90
2018-12-24T14:16:54.436Z,6.47
2018-12-24T14:19:24.151Z,6.53
2018-12-24T14:21:54.404Z,5.75
2018-12-24T14:24:24.722Z,6.63
2018-12-24T14:26:55.051Z,6.63
2018-12-24T14:29:24.821Z,7.03
2018-12-24T14:31:54.394Z,5.87
2018-12-24T14:34:24.643Z,7.07
2018-12-24T14:36:54.300Z,6.03
2018-12-24T14:39:24.546Z,6.67
2018-12-24T14:41:54.247Z,8.20
2018-12-24T14:44:24.500Z,9.53
2018-12-24T14:46:54.168Z,8.10
2018-12-24T14:49:24.421Z,7.73
2018-12-24T14:51:54.873Z,9.37
2018-12-24T14:54:25.205Z,10.58
2018-12-24T14:56:54.883Z,12.67
2018-12-24T14:59:25.132Z,7.20
2018-12-24T15:01:54.838Z,7.73
2018-12-24T15:04:25.075Z,8.17
2018-12-24T15:06:54.748Z,11.33
2018-12-24T15:09:24.993Z,10.57
2018-12-24T15:11:54.688Z,10.30
2018-12-24T15:14:24.288Z,14.70
2018-12-24T15:16:53.883Z,16.40
2018-12-24T15:19:24.134Z,16.43
2018-12-24T15:21:53.833Z,24.00
2018-12-24T15:24:24.223Z,25.33
2018-12-24T15:26:54.569Z,15.77
2018-12-24T15:29:24.882Z,10.53
2018-12-24T15:31:54.568Z,15.80
2018-12-24T15:34:24.832Z,10.10
2018-12-24T15:36:54.532Z,9.47
2018-12-24T15:39:24.775Z,11.90
2018-12-24T15:41:55.096Z,9.03
2018-12-24T15:44:24.804Z,11.55
2018-12-24T15:46:55.965Z,9.93
2018-12-24T15:49:26.316Z,8.80
2018-12-24T15:51:56.004Z,13.03
2018-12-24T15:54:25.648Z,13.50
2018-12-24T15:56:55.267Z,9.03
2018-12-24T15:59:24.944Z,11.93
2018-12-24T16:01:55.232Z,9.37
2018-12-24T16:04:25.552Z,9.17
2018-12-24T16:06:55.891Z,9.43
2018-12-24T16:09:25.588Z,32.40
2018-12-24T16:11:55.993Z,11.00
2018-12-24T16:14:25.717Z,9.83
2018-12-24T16:16:55.956Z,12.27
2018-12-24T16:19:25.644Z,10.00
2018-12-24T16:21:55.904Z,12.13
2018-12-24T16:24:25.583Z,10.32
2018-12-24T16:26:55.228Z,9.00
2018-12-24T16:29:24.823Z,13.53
2018-12-24T16:31:55.067Z,8.23
2018-12-24T16:34:25.396Z,11.18
2018-12-24T16:36:55.129Z,8.93
2018-12-24T16:39:24.712Z,11.73
2018-12-24T16:41:54.324Z,11.63
2018-12-24T16:44:24.605Z,12.93
2018-12-24T16:46:59.306Z,12.90
2018-12-24T16:49:26.284Z,12.35
2018-12-24T16:51:56.527Z,8.03
2018-12-24T16:54:26.269Z,9.65
2018-12-24T16:56:56.500Z,12.53
2018-12-24T16:59:26.196Z,9.57
2018-12-24T17:01:55.803Z,13.90
2018-12-24T17:04:25.404Z,9.93
2018-12-24T17:06:55.013Z,10.77
2018-12-24T17:09:25.276Z,11.77
2018-12-24T17:11:55.643Z,13.10
2018-12-24T17:14:25.951Z,13.93
2018-12-24T17:16:56.300Z,14.30
2018-12-24T17:19:26.672Z,12.17
2018-12-24T17:21:57.020Z,10.87
2018-12-24T17:24:27.350Z,11.37
2018-12-24T17:26:57.059Z,11.13
2018-12-24T17:29:26.655Z,11.77
2018-12-24T17:31:56.908Z,10.47
2018-12-24T17:34:27.257Z,14.40
2018-12-24T17:36:56.956Z,10.27
2018-12-24T17:39:26.564Z,13.50
2018-12-24T17:41:56.831Z,12.50
2018-12-24T17:44:27.156Z,14.07
2018-12-24T17:46:57.503Z,14.67
2018-12-24T17:49:27.221Z,12.00
2018-12-24T17:51:57.466Z,11.43
2018-12-24T17:54:27.139Z,14.45
2018-12-24T17:56:57.387Z,16.70
2018-12-24T17:59:27.846Z,17.35
2018-12-24T18:01:57.664Z,16.03
2018-12-24T18:04:27.244Z,16.00
2018-12-24T18:06:57.477Z,13.07
2018-12-24T18:09:27.226Z,15.73
2018-12-24T18:11:56.832Z,35.13
2018-12-24T18:14:27.080Z,31.70
2018-12-24T18:16:56.807Z,14.13
2018-12-24T18:19:27.156Z,21.80
2018-12-24T18:21:56.887Z,13.57
2018-12-24T18:24:27.120Z,17.80
2018-12-24T18:26:56.829Z,12.27
2018-12-24T18:29:26.428Z,16.23
2018-12-24T18:31:56.725Z,16.87
2018-12-24T18:34:27.067Z,19.53
2018-12-24T18:36:57.409Z,16.77
2018-12-24T18:39:27.095Z,25.33
2018-12-24T18:41:57.423Z,22.73
2018-12-24T18:44:27.120Z,27.57
2018-12-24T18:46:57.438Z,16.40
2018-12-24T18:49:27.760Z,20.00
2018-12-24T18:51:57.464Z,17.67
2018-12-24T18:54:27.804Z,16.67
2018-12-24T18:56:58.183Z,16.80
2018-12-24T18:59:28.578Z,15.90
2018-12-24T19:01:58.230Z,15.27
2018-12-24T19:04:27.848Z,15.58
2018-12-24T19:06:57.456Z,24.03
2018-12-24T19:09:27.211Z,21.13
2018-12-24T19:11:57.433Z,25.90
2018-12-24T19:14:27.114Z,17.53
2018-12-24T19:16:56.743Z,14.33
2018-12-24T19:19:26.997Z,20.00
2018-12-24T19:21:57.339Z,16.13
2018-12-24T19:24:27.656Z,15.38
2018-12-24T19:26:57.494Z,18.20
2018-12-24T19:29:27.747Z,28.80
2018-12-24T19:31:58.097Z,23.40
2018-12-24T19:34:28.425Z,46.67
2018-12-24T19:36:58.176Z,34.17
2018-12-24T19:39:27.787Z,22.60
2018-12-24T19:41:57.463Z,25.17
2018-12-24T19:44:27.087Z,16.93
2018-12-24T19:46:57.337Z,15.23
2018-12-24T19:49:27.720Z,14.33
2018-12-24T19:51:58.086Z,18.27
2018-12-24T19:54:28.464Z,13.40
2018-12-24T19:56:58.808Z,14.00
2018-12-24T19:59:28.582Z,21.40
2018-12-24T20:01:58.160Z,20.77
2018-12-24T20:04:28.412Z,15.23
2018-12-24T20:06:58.743Z,15.93
2018-12-24T20:09:29.080Z,14.83
2018-12-24T20:12:00.568Z,12.10
2018-12-24T20:14:30.795Z,15.50
2018-12-24T20:17:00.487Z,14.53
2018-12-24T20:19:30.088Z,11.53
2018-12-24T20:22:00.360Z,13.10
2018-12-24T20:24:30.696Z,11.23
2018-12-24T20:27:00.391Z,7.83
2018-12-24T20:29:30.641Z,9.67
2018-12-24T20:32:00.344Z,15.07
2018-12-24T20:34:29.930Z,12.30
2018-12-24T20:37:00.172Z,7.90
2018-12-24T20:39:29.860Z,5.92
2018-12-24T20:42:00.137Z,18.90
2018-12-24T20:44:30.460Z,7.53
2018-12-24T20:47:00.799Z,6.00
2018-12-24T20:49:31.128Z,9.10
2018-12-24T20:52:00.844Z,10.70
2018-12-24T20:54:30.416Z,7.37
2018-12-24T20:56:59.997Z,6.30
2018-12-24T20:59:29.601Z,6.43
2018-12-24T21:01:59.868Z,11.47
2018-12-24T21:04:29.580Z,4.83
2018-12-24T21:06:59.806Z,6.47
2018-12-24T21:09:29.488Z,6.53
2018-12-24T21:11:59.073Z,12.40
2018-12-24T21:14:28.687Z,8.60
2018-12-24T21:16:58.956Z,7.03
2018-12-24T21:19:29.288Z,8.83
2018-12-24T21:21:59.635Z,7.37
2018-12-24T21:24:29.315Z,8.33
2018-12-24T21:26:58.944Z,7.53
2018-12-24T21:29:30.003Z,7.80
2018-12-24T21:32:00.319Z,4.47
2018-12-24T21:34:30.004Z,6.15
2018-12-24T21:37:00.352Z,5.73
2018-12-24T21:39:30.036Z,8.13
2018-12-24T21:41:59.616Z,4.73
2018-12-24T21:44:29.188Z,7.55
2018-12-24T21:46:59.454Z,6.30
2018-12-24T21:49:29.216Z,10.40
2018-12-24T21:51:59.464Z,9.27
2018-12-24T21:54:29.211Z,9.50
2018-12-24T21:56:59.666Z,6.43
2018-12-24T21:59:29.368Z,4.30
2018-12-24T22:01:59.632Z,4.93
2018-12-24T22:04:29.300Z,7.87
2018-12-24T22:06:58.896Z,4.97
2018-12-24T22:09:29.140Z,7.23
2018-12-24T22:11:59.544Z,5.70
2018-12-24T22:14:29.227Z,11.67
2018-12-24T22:16:59.467Z,9.03
2018-12-24T22:19:29.797Z,3.77
2018-12-24T22:21:59.496Z,4.53
2018-12-24T22:24:29.752Z,4.10
2018-12-24T22:27:00.096Z,4.87
2018-12-24T22:29:29.764Z,8.47
2018-12-24T22:31:59.404Z,7.17
2018-12-24T22:34:28.993Z,8.93
2018-12-24T22:36:58.576Z,3.80
2018-12-24T22:39:28.217Z,7.93
2018-12-24T22:41:57.792Z,9.17
2018-12-24T22:44:28.048Z,7.43
2018-12-24T22:46:58.412Z,6.90
2018-12-24T22:49:28.744Z,12.18
2018-12-24T22:51:58.435Z,4.03
2018-12-24T22:54:28.772Z,4.63
2018-12-24T22:56:59.224Z,3.67
2018-12-24T22:59:28.891Z,7.53
2018-12-24T23:01:59.152Z,4.17
2018-12-24T23:04:29.520Z,5.87
2018-12-24T23:06:59.224Z,5.40
2018-12-24T23:09:28.808Z,6.53
2018-12-24T23:11:59.056Z,10.73
2018-12-24T23:14:29.413Z,8.97
2018-12-24T23:16:59.739Z,5.67
2018-12-24T23:19:29.456Z,5.57
2018-12-24T23:21:59.688Z,8.67
2018-12-24T23:24:30.036Z,7.77
2018-12-24T23:26:59.729Z,11.13
2018-12-24T23:29:29.990Z,7.83
2018-12-24T23:31:59.668Z,5.07
2018-12-24T23:34:29.279Z,5.63
2018-12-24T23:36:59.529Z,6.30
2018-12-24T23:39:29.873Z,6.37
2018-12-24T23:42:00.214Z,6.20
2018-12-24T23:44:30.548Z,8.30
2018-12-24T23:47:00.860Z,3.40
2018-12-24T23:49:30.568Z,7.47
2018-12-24T23:52:00.830Z,5.80
2018-12-24T23:54:30.509Z,8.93
2018-12-24T23:57:00.080Z,3.50
2018-12-24T23:59:30.347Z,5.10
